Terminal Aerodrome Forecast
Issued by NWS Houston/Galveston, TX

Home | Current Version | Previous Version | Text Only | Print | Product List | Glossary On
Versions: 1 2 3 4 5 6 7 8 9 10 11 12 13 14 15 16 17 18 19 20 21
000
FTUS44 KHGX 240211 AAC
TAFCLL
TAF AMD
KCLL 240211Z 2402/2424 VRB06KT P6SM -RA VCTS BKN040CB BKN080
      TEMPO 2402/2404 5SM RA BR BKN040
     FM240400 09004KT P6SM SCT120
     FM240700 13003KT P6SM SCT250
     FM241400 06003KT P6SM SCT250
     FM242200 08008KT P6SM VCTS BKN060CB=

USA.gov is the U.S. government's official web portal to all federal, state and local government web resources and services.